Airfield :
LOGIN :

Register | Disclaimer

   EN    FR    IT 

 










Legend :    VFR   Marginal VFR   IFR   Intensive IFR   Very Intensive IFR
Visi :
Ceiling :
>= 8 km
>= 3000ft
5 to 8 km
1000 to 3000 ft
1500m to 5 km
500 to 1000 ft
800 to 1500m
200 to 500 ft
< 800m
< 200 ft
Symbols :   Thunderstorms  Fog  Heavy snow  Heavy precipitations  Wind > 20 kt
SIGMETs :     Misc.  Thunderstorms  Icing  Turbulence  Mountain Waves  Volcanic Ashes







- Airport Elevation : 154 ft
- IATA code : SZZ


EPSC - Szczecin Goleniow

CURRENT METAR :
  • 270830Z 29007KT 220V310 9999 SCT032 17/08 Q1013

EXPIRED METARs :
  • 270800Z 27007KT 210V310 9999 SCT026 16/08 Q1013
  • 270730Z 25005KT 150V310 9999 SCT024 16/09 Q1013
  • 270700Z 28007KT 250V310 9999 SCT021 15/09 Q1013
  • 270630Z 31007KT 260V330 9999 FEW017 15/10 Q1013
  • 270600Z 26003KT 230V310 CAVOK 14/11 Q1013

TAF TAF EPSC
Valid from the 27 at 06:00 until the 28 at 06:00 UTC


270530Z 2706/2806 27005KT CAVOK
BECMG 2715/2718 07010KT
No reported NOTAMs for that airfield.



MET'MAP, your aeronautical weather chart ! - Copyright ORBIFLY December 2007 - Disclaimer

ORBIFLY MET'MAP TEAM :

Programming & Development : Alexandra Zaïnal
Concept & Development : Baudouin d'Aumeries
Co-Development & Prog : Marc-Olivier Méhu
Technical & hardware support : Manuel Goepfert

Contact : metmap@orbifly.com




SOURCES & CREDITS :

   NOAA